createdAt,value
2018-05-06T00:01:19.167Z,9.50
2018-05-06T00:03:47.504Z,9.50
2018-05-06T00:06:16.601Z,9.50
2018-05-06T00:08:45.716Z,9.50
2018-05-06T00:11:14.046Z,9.50
2018-05-06T00:13:42.530Z,9.50
2018-05-06T00:16:10.879Z,9.50
2018-05-06T00:18:39.238Z,9.50
2018-05-06T00:21:07.602Z,9.50
2018-05-06T00:23:35.940Z,9.50
2018-05-06T00:26:04.400Z,9.40
2018-05-06T00:28:32.725Z,9.40
2018-05-06T00:31:01.829Z,9.30
2018-05-06T00:33:30.263Z,9.30
2018-05-06T00:35:59.058Z,9.30
2018-05-06T00:38:27.411Z,9.30
2018-05-06T00:40:55.756Z,9.30
2018-05-06T00:43:24.132Z,9.20
2018-05-06T00:45:52.477Z,9.20
2018-05-06T00:48:20.864Z,9.20
2018-05-06T00:50:49.948Z,9.20
2018-05-06T00:53:18.290Z,9.20
2018-05-06T00:55:46.640Z,9.20
2018-05-06T00:58:14.994Z,9.10
2018-05-06T01:00:44.088Z,9.00
2018-05-06T01:03:13.214Z,8.90
2018-05-06T01:05:41.567Z,8.90
2018-05-06T01:08:10.641Z,8.80
2018-05-06T01:10:39.057Z,8.80
2018-05-06T01:13:07.404Z,8.80
2018-05-06T01:15:35.771Z,8.70
2018-05-06T01:18:04.120Z,8.60
2018-05-06T01:20:32.793Z,8.60
2018-05-06T01:23:01.103Z,8.50
2018-05-06T01:25:29.436Z,8.50
2018-05-06T01:27:57.795Z,8.40
2018-05-06T01:30:26.156Z,8.40
2018-05-06T01:32:55.233Z,8.40
2018-05-06T01:35:23.602Z,8.40
2018-05-06T01:37:51.941Z,8.40
2018-05-06T01:40:20.260Z,8.40
2018-05-06T01:42:48.610Z,8.40
2018-05-06T01:45:16.941Z,8.40
2018-05-06T01:47:45.283Z,8.30
2018-05-06T01:50:13.604Z,8.30
2018-05-06T01:52:42.735Z,8.30
2018-05-06T01:55:11.107Z,8.30
2018-05-06T01:57:39.477Z,8.20
2018-05-06T02:00:07.817Z,8.30
2018-05-06T02:02:36.940Z,8.20
2018-05-06T02:05:05.281Z,8.20
2018-05-06T02:07:33.762Z,8.20
2018-05-06T02:10:02.114Z,8.20
2018-05-06T02:12:30.436Z,8.10
2018-05-06T02:14:58.805Z,8.20
2018-05-06T02:17:27.153Z,8.10
2018-05-06T02:19:55.525Z,8.10
2018-05-06T02:22:23.875Z,8.10
2018-05-06T02:24:52.992Z,8.00
2018-05-06T02:27:21.330Z,8.00
2018-05-06T02:29:49.699Z,8.00
2018-05-06T02:32:18.063Z,8.00
2018-05-06T02:34:47.236Z,8.00
2018-05-06T02:37:16.072Z,7.90
2018-05-06T02:39:44.402Z,7.90
2018-05-06T02:42:12.747Z,7.90
2018-05-06T02:44:41.108Z,7.90
2018-05-06T02:47:09.424Z,7.80
2018-05-06T02:49:37.839Z,7.80
2018-05-06T02:52:06.937Z,7.70
2018-05-06T02:54:36.061Z,7.70
2018-05-06T02:57:04.402Z,7.70
2018-05-06T02:59:33.507Z,7.70
2018-05-06T03:02:01.965Z,7.70
2018-05-06T03:04:30.307Z,7.70
2018-05-06T03:06:58.655Z,7.70
2018-05-06T03:09:27.056Z,7.70
2018-05-06T03:11:55.402Z,7.80
2018-05-06T03:14:23.705Z,7.90
2018-05-06T03:16:52.070Z,7.90
2018-05-06T03:19:20.414Z,7.90
2018-05-06T03:21:49.633Z,7.90
2018-05-06T03:24:17.977Z,7.90
2018-05-06T03:26:46.309Z,7.90
2018-05-06T03:29:14.650Z,7.90
2018-05-06T03:31:43.723Z,7.90
2018-05-06T03:34:12.124Z,7.90
2018-05-06T03:36:41.222Z,7.90
2018-05-06T03:39:10.324Z,7.90
2018-05-06T03:41:38.686Z,7.90
2018-05-06T03:44:07.811Z,7.80
2018-05-06T03:46:36.225Z,7.80
2018-05-06T03:49:04.578Z,7.70
2018-05-06T03:51:32.939Z,7.70
2018-05-06T03:54:01.289Z,7.60
2018-05-06T03:59:50.145Z,7.60
2018-05-06T04:05:20.544Z,7.50
2018-05-06T04:07:49.689Z,7.60
2018-05-06T04:10:18.061Z,7.60
2018-05-06T04:12:46.438Z,7.60
2018-05-06T04:15:14.799Z,7.60
2018-05-06T04:17:43.180Z,7.60
2018-05-06T04:20:11.561Z,7.60
2018-05-06T04:22:39.979Z,7.60
2018-05-06T04:25:08.361Z,7.60
2018-05-06T04:27:36.736Z,7.60
2018-05-06T04:30:05.160Z,7.60
2018-05-06T04:32:33.570Z,7.60
2018-05-06T04:35:01.923Z,7.60
2018-05-06T04:37:30.273Z,7.60
2018-05-06T04:39:59.381Z,7.60
2018-05-06T04:42:27.733Z,7.60
2018-05-06T04:44:56.087Z,7.60
2018-05-06T04:47:24.479Z,7.60
2018-05-06T04:49:52.832Z,7.70
2018-05-06T04:52:21.172Z,7.70
2018-05-06T04:54:49.556Z,7.70
2018-05-06T04:57:17.890Z,7.70
2018-05-06T04:59:46.299Z,7.80
2018-05-06T05:02:15.409Z,7.90
2018-05-06T05:04:43.737Z,7.80
2018-05-06T05:07:12.122Z,7.90
2018-05-06T05:09:40.489Z,8.00
2018-05-06T05:12:08.897Z,8.00
2018-05-06T05:14:38.022Z,8.10
2018-05-06T05:17:06.348Z,8.10
2018-05-06T05:19:34.734Z,8.20
2018-05-06T05:22:03.859Z,8.40
2018-05-06T05:24:32.215Z,8.40
2018-05-06T05:27:01.884Z,8.60
2018-05-06T05:29:30.227Z,8.60
2018-05-06T05:31:58.581Z,8.80
2018-05-06T05:34:27.726Z,9.40
2018-05-06T05:36:56.066Z,9.40
2018-05-06T05:39:24.447Z,9.70
2018-05-06T05:41:52.803Z,10.00
2018-05-06T05:44:21.948Z,10.50
2018-05-06T05:46:50.311Z,10.50
2018-05-06T05:49:18.664Z,10.70
2018-05-06T05:51:47.046Z,11.00
2018-05-06T05:54:15.393Z,11.20
2018-05-06T05:56:43.791Z,11.30
2018-05-06T05:59:12.945Z,11.70
2018-05-06T06:01:41.814Z,11.70
2018-05-06T06:04:10.167Z,11.90
2018-05-06T06:06:38.532Z,12.20
2018-05-06T06:09:06.959Z,12.40
2018-05-06T06:11:35.391Z,12.70
2018-05-06T06:14:03.788Z,12.70
2018-05-06T06:16:32.168Z,12.90
2018-05-06T06:19:00.527Z,12.90
2018-05-06T06:21:28.891Z,13.10
2018-05-06T06:23:58.056Z,13.40
2018-05-06T06:26:26.399Z,13.30
2018-05-06T06:28:54.789Z,13.60
2018-05-06T06:31:23.128Z,13.60
2018-05-06T06:33:52.283Z,14.20
2018-05-06T06:36:20.641Z,14.10
2018-05-06T06:38:49.023Z,14.20
2018-05-06T06:41:17.417Z,14.40
2018-05-06T06:43:46.189Z,14.60
2018-05-06T06:46:14.526Z,14.70
2018-05-06T06:48:42.897Z,14.80
2018-05-06T06:51:11.285Z,15.10
2018-05-06T06:53:39.647Z,15.20
2018-05-06T06:56:08.840Z,15.30
2018-05-06T06:58:38.017Z,15.60
2018-05-06T07:01:06.384Z,15.50
2018-05-06T07:03:34.748Z,15.70
2018-05-06T07:06:03.179Z,15.90
2018-05-06T07:08:31.544Z,15.90
2018-05-06T07:11:00.662Z,16.40
2018-05-06T07:13:29.039Z,16.40
2018-05-06T07:15:57.387Z,16.50
2018-05-06T07:18:26.536Z,16.60
2018-05-06T07:20:55.660Z,16.90
2018-05-06T07:23:24.025Z,16.80
2018-05-06T07:25:52.373Z,16.80
2018-05-06T07:28:20.741Z,16.80
2018-05-06T07:30:49.102Z,16.90
2018-05-06T07:33:18.293Z,17.30
2018-05-06T07:35:46.692Z,17.30
2018-05-06T07:38:15.851Z,17.50
2018-05-06T07:40:44.245Z,17.70
2018-05-06T07:43:13.401Z,17.90
2018-05-06T07:45:41.811Z,17.90
2018-05-06T07:48:10.918Z,18.20
2018-05-06T07:50:39.303Z,18.20
2018-05-06T07:53:07.665Z,18.30
2018-05-06T07:55:36.955Z,18.70
2018-05-06T07:58:05.296Z,18.70
2018-05-06T08:00:33.699Z,18.90
2018-05-06T08:03:02.963Z,19.00
2018-05-06T08:05:31.341Z,19.00
2018-05-06T08:07:59.713Z,19.20
2018-05-06T08:10:28.847Z,19.20
2018-05-06T08:12:57.249Z,19.20
2018-05-06T08:15:26.408Z,19.60
2018-05-06T08:17:54.815Z,19.50
2018-05-06T08:20:23.944Z,19.90
2018-05-06T08:22:52.331Z,19.80
2018-05-06T08:25:20.701Z,20.00
2018-05-06T08:27:49.397Z,20.20
2018-05-06T08:30:17.896Z,20.30
2018-05-06T08:32:47.265Z,20.60
2018-05-06T08:35:15.627Z,20.50
2018-05-06T08:37:44.005Z,20.50
2018-05-06T08:40:12.404Z,20.90
2018-05-06T08:42:40.797Z,20.80
2018-05-06T08:45:09.179Z,21.20
2018-05-06T08:47:37.568Z,21.60
2018-05-06T08:50:06.453Z,21.60
2018-05-06T08:52:34.849Z,21.80
2018-05-06T08:55:03.271Z,21.50
2018-05-06T08:57:31.652Z,21.80
2018-05-06T08:59:59.993Z,22.00
2018-05-06T09:02:28.394Z,21.90
2018-05-06T09:04:57.560Z,21.80
2018-05-06T09:07:25.957Z,21.80
2018-05-06T09:09:55.097Z,22.00
2018-05-06T09:12:23.530Z,22.00
2018-05-06T09:14:52.667Z,22.30
2018-05-06T09:17:21.046Z,22.30
2018-05-06T09:19:49.447Z,22.40
2018-05-06T09:22:17.830Z,22.30
2018-05-06T09:24:46.247Z,22.20
2018-05-06T09:27:14.620Z,22.40
2018-05-06T09:29:43.172Z,22.50
2018-05-06T09:32:11.676Z,22.60
2018-05-06T09:34:40.078Z,22.80
2018-05-06T09:37:08.482Z,22.80
2018-05-06T09:39:36.829Z,22.90
2018-05-06T09:42:05.255Z,23.20
2018-05-06T09:44:33.636Z,23.00
2018-05-06T09:47:02.078Z,22.70
2018-05-06T09:49:30.473Z,23.00
2018-05-06T09:51:58.854Z,22.90
2018-05-06T09:54:27.249Z,22.60
2018-05-06T09:56:56.645Z,23.00
2018-05-06T09:59:25.128Z,23.50
2018-05-06T10:01:53.486Z,23.40
2018-05-06T10:04:21.900Z,23.00
2018-05-06T10:06:50.261Z,23.30
2018-05-06T10:09:18.635Z,23.40
2018-05-06T10:11:48.145Z,23.40
2018-05-06T10:14:16.525Z,23.50
2018-05-06T10:16:45.911Z,23.80
2018-05-06T10:19:14.493Z,23.80
2018-05-06T10:21:42.876Z,23.90
2018-05-06T10:24:11.272Z,23.90
2018-05-06T10:26:39.659Z,24.10
2018-05-06T10:29:08.018Z,24.00
2018-05-06T10:31:38.431Z,23.80
2018-05-06T10:34:06.806Z,23.80
2018-05-06T10:36:35.164Z,23.90
2018-05-06T10:39:03.747Z,24.20
2018-05-06T10:41:32.106Z,24.40
2018-05-06T10:44:00.501Z,24.10
2018-05-06T10:46:28.890Z,24.40
2018-05-06T10:49:01.647Z,24.40
2018-05-06T10:51:29.952Z,24.60
2018-05-06T10:53:58.349Z,24.50
2018-05-06T10:56:26.732Z,24.50
2018-05-06T10:58:57.135Z,24.10
2018-05-06T11:01:25.483Z,24.20
2018-05-06T11:03:54.776Z,24.20
2018-05-06T11:06:24.885Z,24.30
2018-05-06T11:08:54.066Z,24.40
2018-05-06T11:11:22.469Z,24.40
2018-05-06T11:13:50.929Z,24.80
2018-05-06T11:16:20.063Z,24.90
2018-05-06T11:18:48.535Z,24.90
2018-05-06T11:21:16.947Z,24.60
2018-05-06T11:23:45.288Z,24.60
2018-05-06T11:26:13.712Z,24.60
2018-05-06T11:28:42.231Z,24.60
2018-05-06T11:31:11.371Z,25.20
2018-05-06T11:33:39.775Z,25.10
2018-05-06T11:36:08.154Z,25.10
2018-05-06T11:38:36.500Z,25.00
2018-05-06T11:41:04.928Z,25.00
2018-05-06T11:43:33.300Z,25.00
2018-05-06T11:46:02.439Z,25.20
2018-05-06T11:48:30.843Z,25.20
2018-05-06T11:50:59.242Z,25.20
2018-05-06T11:53:30.426Z,25.50
2018-05-06T11:55:58.797Z,25.50
2018-05-06T11:58:27.188Z,25.40
2018-05-06T12:00:55.560Z,25.30
2018-05-06T12:03:23.957Z,25.20
2018-05-06T12:05:52.309Z,25.30
2018-05-06T12:08:20.683Z,25.00
2018-05-06T12:10:49.032Z,25.00
2018-05-06T12:13:18.609Z,25.30
2018-05-06T12:15:50.731Z,25.30
2018-05-06T12:18:19.171Z,25.20
2018-05-06T12:20:48.520Z,24.50
2018-05-06T12:23:16.945Z,24.60
2018-05-06T12:25:45.311Z,24.90
2018-05-06T12:28:13.712Z,25.30
2018-05-06T12:30:42.104Z,25.20
2018-05-06T12:33:11.210Z,25.50
2018-05-06T12:35:42.423Z,25.70
2018-05-06T12:38:10.768Z,25.70
2018-05-06T12:40:42.354Z,25.50
2018-05-06T12:43:10.796Z,25.50
2018-05-06T12:45:39.083Z,25.40
2018-05-06T12:48:07.481Z,25.50
2018-05-06T12:50:35.863Z,25.70
2018-05-06T12:53:04.232Z,25.40
2018-05-06T12:55:32.617Z,25.60
2018-05-06T12:58:02.015Z,25.70
2018-05-06T13:00:30.549Z,25.90
2018-05-06T13:02:59.945Z,25.80
2018-05-06T13:05:28.286Z,25.90
2018-05-06T13:07:56.676Z,25.80
2018-05-06T13:10:25.779Z,25.70
2018-05-06T13:12:54.185Z,25.60
2018-05-06T13:15:23.607Z,25.70
2018-05-06T13:17:53.016Z,26.00
2018-05-06T13:20:21.413Z,26.10
2018-05-06T13:22:50.119Z,26.10
2018-05-06T13:25:19.248Z,26.30
2018-05-06T13:27:47.650Z,26.20
2018-05-06T13:30:16.045Z,25.70
2018-05-06T13:32:44.426Z,25.80
2018-05-06T13:35:13.185Z,25.60
2018-05-06T13:37:41.576Z,25.50
2018-05-06T13:40:09.957Z,25.60
2018-05-06T13:42:38.381Z,25.30
2018-05-06T13:45:06.813Z,25.60
2018-05-06T13:47:36.179Z,25.70
2018-05-06T13:50:04.749Z,25.60
2018-05-06T13:52:33.073Z,25.40
2018-05-06T13:55:01.472Z,25.70
2018-05-06T13:57:29.927Z,25.70
2018-05-06T13:59:58.306Z,26.10
2018-05-06T14:02:26.671Z,26.50
2018-05-06T14:04:58.335Z,26.20
2018-05-06T14:07:27.832Z,26.10
2018-05-06T14:09:57.217Z,26.10
2018-05-06T14:12:25.612Z,26.20
2018-05-06T14:14:54.004Z,26.30
2018-05-06T14:17:23.400Z,26.10
2018-05-06T14:19:53.789Z,26.00
2018-05-06T14:22:22.269Z,26.20
2018-05-06T14:24:51.388Z,26.30
2018-05-06T14:27:19.758Z,26.30
2018-05-06T14:29:48.144Z,26.60
2018-05-06T14:32:16.524Z,26.70
2018-05-06T14:34:44.889Z,26.50
2018-05-06T14:37:13.235Z,26.40
2018-05-06T14:39:41.646Z,26.20
2018-05-06T14:42:10.011Z,26.10
2018-05-06T14:44:38.378Z,26.10
2018-05-06T14:47:18.655Z,25.80
2018-05-06T14:49:47.046Z,26.00
2018-05-06T14:52:15.417Z,26.00
2018-05-06T14:54:43.831Z,26.10
2018-05-06T14:57:12.186Z,26.10
2018-05-06T14:59:40.556Z,25.60
2018-05-06T15:02:08.943Z,25.50
2018-05-06T15:04:37.352Z,25.50
2018-05-06T15:07:06.512Z,25.80
2018-05-06T15:09:34.876Z,25.80
2018-05-06T15:12:03.317Z,26.00
2018-05-06T15:14:36.384Z,26.10
2018-05-06T15:17:04.810Z,26.10
2018-05-06T15:19:33.244Z,26.30
2018-05-06T15:22:02.423Z,26.60
2018-05-06T15:24:30.813Z,26.60
2018-05-06T15:27:01.316Z,26.50
2018-05-06T15:29:29.692Z,26.30
2018-05-06T15:31:58.034Z,26.30
2018-05-06T15:34:26.413Z,26.30
2018-05-06T15:36:54.783Z,26.20
2018-05-06T15:39:23.175Z,26.10
2018-05-06T15:41:51.568Z,26.10
2018-05-06T15:44:19.991Z,26.00
2018-05-06T15:46:49.152Z,25.70
2018-05-06T15:49:17.574Z,25.70
2018-05-06T15:51:46.789Z,25.70
2018-05-06T15:54:15.141Z,25.70
2018-05-06T15:56:44.708Z,26.10
2018-05-06T15:59:13.153Z,26.10
2018-05-06T16:01:41.554Z,26.20
2018-05-06T16:04:13.999Z,26.10
2018-05-06T16:06:42.383Z,26.20
2018-05-06T16:09:10.718Z,26.00
2018-05-06T16:11:39.124Z,26.50
2018-05-06T16:14:08.257Z,26.90
2018-05-06T16:16:36.624Z,26.80
2018-05-06T16:19:05.134Z,26.70
2018-05-06T16:21:33.541Z,26.90
2018-05-06T16:24:02.672Z,28.00
2018-05-06T16:26:31.092Z,28.00
2018-05-06T16:28:59.434Z,28.10
2018-05-06T16:31:27.815Z,28.00
2018-05-06T16:33:56.169Z,28.50
2018-05-06T16:36:24.556Z,28.60
2018-05-06T16:38:52.915Z,28.50
2018-05-06T16:41:21.292Z,28.30
2018-05-06T16:43:50.461Z,27.90
2018-05-06T16:46:18.808Z,27.80
2018-05-06T16:48:47.169Z,27.30
2018-05-06T16:51:15.567Z,26.90
2018-05-06T16:53:43.915Z,26.20
2018-05-06T16:56:12.301Z,25.80
2018-05-06T16:58:40.739Z,25.30
2018-05-06T17:01:09.887Z,24.50
2018-05-06T17:03:38.283Z,24.50
2018-05-06T17:06:06.717Z,24.50
2018-05-06T17:08:35.103Z,24.50
2018-05-06T17:11:03.590Z,24.30
2018-05-06T17:13:31.997Z,24.10
2018-05-06T17:16:00.395Z,23.90
2018-05-06T17:18:28.784Z,23.80
2018-05-06T17:20:57.976Z,23.60
2018-05-06T17:23:26.353Z,23.50
2018-05-06T17:25:54.723Z,23.50
2018-05-06T17:28:23.155Z,23.30
2018-05-06T17:30:51.525Z,23.30
2018-05-06T17:33:19.899Z,23.10
2018-05-06T17:35:48.308Z,22.80
2018-05-06T17:38:16.706Z,22.70
2018-05-06T17:40:45.139Z,22.70
2018-05-06T17:43:13.504Z,22.50
2018-05-06T17:45:41.912Z,22.40
2018-05-06T17:48:10.329Z,22.20
2018-05-06T17:50:38.751Z,22.20
2018-05-06T17:53:07.134Z,22.10
2018-05-06T17:55:35.543Z,22.00
2018-05-06T17:58:03.974Z,21.90
2018-05-06T18:00:32.401Z,21.80
2018-05-06T18:03:00.768Z,21.70
2018-05-06T18:05:29.159Z,21.60
2018-05-06T18:07:57.553Z,21.50
2018-05-06T18:10:26.708Z,21.30
2018-05-06T18:12:55.083Z,21.20
2018-05-06T18:15:23.492Z,21.20
2018-05-06T18:17:52.009Z,21.00
2018-05-06T18:20:21.151Z,20.60
2018-05-06T18:22:49.506Z,20.60
2018-05-06T18:25:17.881Z,20.40
2018-05-06T18:27:46.264Z,20.20
2018-05-06T18:30:14.644Z,20.10
2018-05-06T18:32:43.036Z,20.00
2018-05-06T18:35:11.393Z,19.90
2018-05-06T18:37:39.782Z,19.70
2018-05-06T18:40:08.145Z,19.60
2018-05-06T18:42:36.954Z,19.40
2018-05-06T18:45:05.782Z,19.30
2018-05-06T18:47:34.236Z,19.20
2018-05-06T18:50:02.621Z,19.10
2018-05-06T18:52:31.500Z,19.00
2018-05-06T18:55:01.299Z,18.90
2018-05-06T18:57:30.083Z,18.80
2018-05-06T18:59:58.997Z,18.70
2018-05-06T19:02:27.847Z,18.50
2018-05-06T19:04:57.482Z,18.20
2018-05-06T19:07:26.486Z,18.20
2018-05-06T19:09:54.900Z,18.10
2018-05-06T19:12:24.032Z,17.90
2018-05-06T19:14:52.459Z,17.90
2018-05-06T19:17:20.941Z,17.90
2018-05-06T19:19:49.337Z,17.80
2018-05-06T19:22:18.545Z,17.50
2018-05-06T19:24:47.088Z,17.50
2018-05-06T19:27:16.643Z,17.40
2018-05-06T19:29:45.167Z,17.40
2018-05-06T19:32:13.510Z,17.30
2018-05-06T19:34:41.874Z,17.20
2018-05-06T19:37:11.861Z,17.00
2018-05-06T19:39:42.160Z,16.90
2018-05-06T19:42:13.128Z,16.80
2018-05-06T19:44:42.432Z,16.70
2018-05-06T19:47:10.822Z,16.70
2018-05-06T19:49:40.296Z,16.60
2018-05-06T19:52:08.689Z,16.50
2018-05-06T19:54:37.811Z,16.30
2018-05-06T19:57:06.195Z,16.30
2018-05-06T19:59:34.561Z,16.30
2018-05-06T20:02:02.934Z,16.20
2018-05-06T20:04:31.343Z,16.20
2018-05-06T20:06:59.730Z,16.10
2018-05-06T20:09:28.106Z,16.00
2018-05-06T20:11:56.470Z,15.90
2018-05-06T20:14:24.870Z,15.90
2018-05-06T20:16:53.230Z,15.80
2018-05-06T20:19:21.586Z,15.80
2018-05-06T20:21:50.294Z,15.70
2018-05-06T20:24:18.603Z,15.60
2018-05-06T20:26:46.994Z,15.50
2018-05-06T20:29:16.133Z,15.50
2018-05-06T20:31:44.536Z,15.40
2018-05-06T20:34:12.995Z,15.40
2018-05-06T20:36:41.356Z,15.30
2018-05-06T20:39:09.758Z,15.20
2018-05-06T20:41:38.197Z,15.20
2018-05-06T20:44:06.560Z,15.10
2018-05-06T20:46:35.689Z,15.00
2018-05-06T20:49:04.073Z,15.00
2018-05-06T20:51:32.463Z,14.90
2018-05-06T20:54:00.848Z,14.90
2018-05-06T20:56:29.353Z,14.80
2018-05-06T20:58:57.721Z,14.70
2018-05-06T21:01:26.082Z,14.60
2018-05-06T21:03:54.479Z,14.60
2018-05-06T21:06:24.790Z,14.50
2018-05-06T21:08:53.206Z,14.50
2018-05-06T21:11:24.426Z,14.40
2018-05-06T21:13:52.820Z,14.40
2018-05-06T21:16:21.955Z,14.30
2018-05-06T21:18:50.467Z,14.20
2018-05-06T21:21:18.831Z,14.30
2018-05-06T21:23:47.200Z,14.20
2018-05-06T21:26:15.578Z,14.20
2018-05-06T21:28:43.967Z,14.10
2018-05-06T21:31:12.704Z,14.10
2018-05-06T21:33:41.824Z,14.00
2018-05-06T21:36:10.188Z,14.00
2018-05-06T21:38:38.785Z,14.00
2018-05-06T21:41:07.163Z,14.00
2018-05-06T21:43:35.584Z,13.90
2018-05-06T21:46:03.963Z,13.90
2018-05-06T21:48:32.341Z,13.80
2018-05-06T21:51:00.727Z,13.80
2018-05-06T21:53:29.068Z,13.80
2018-05-06T21:55:58.491Z,13.70
2018-05-06T21:58:26.887Z,13.60
2018-05-06T22:00:55.340Z,13.60
2018-05-06T22:03:23.686Z,13.60
2018-05-06T22:05:52.088Z,13.60
2018-05-06T22:08:20.443Z,13.50
2018-05-06T22:10:48.870Z,13.50
2018-05-06T22:13:17.246Z,13.40
2018-05-06T22:15:45.654Z,13.30
2018-05-06T22:18:14.821Z,13.20
2018-05-06T22:20:43.194Z,13.20
2018-05-06T22:23:11.547Z,13.20
2018-05-06T22:25:39.932Z,13.20
2018-05-06T22:28:08.300Z,13.20
2018-05-06T22:30:36.726Z,13.10
2018-05-06T22:33:05.882Z,13.00
2018-05-06T22:35:34.244Z,13.00
2018-05-06T22:38:03.020Z,13.10
2018-05-06T22:40:31.375Z,13.00
2018-05-06T22:43:00.510Z,13.00
2018-05-06T22:45:28.897Z,13.00
2018-05-06T22:47:57.278Z,13.00
2018-05-06T22:50:25.640Z,12.90
2018-05-06T22:52:54.049Z,12.90
2018-05-06T22:55:22.402Z,12.80
2018-05-06T22:57:50.751Z,12.80
2018-05-06T23:00:19.316Z,12.80
2018-05-06T23:02:48.405Z,12.70
2018-05-06T23:05:17.535Z,12.60
2018-05-06T23:07:45.915Z,12.60
2018-05-06T23:10:14.303Z,12.60
2018-05-06T23:12:42.633Z,12.50
2018-05-06T23:15:11.895Z,12.40
2018-05-06T23:17:40.254Z,12.40
2018-05-06T23:20:08.623Z,12.40
2018-05-06T23:22:36.982Z,12.40
2018-05-06T23:25:05.372Z,12.30
2018-05-06T23:27:33.875Z,12.30
2018-05-06T23:30:02.245Z,12.30
2018-05-06T23:32:30.577Z,12.20
2018-05-06T23:34:59.702Z,12.20
2018-05-06T23:37:28.835Z,12.10
2018-05-06T23:39:57.233Z,12.10
2018-05-06T23:42:26.342Z,12.00
2018-05-06T23:44:55.780Z,12.00
2018-05-06T23:47:24.148Z,12.00
2018-05-06T23:49:52.500Z,12.00
2018-05-06T23:52:21.666Z,11.90
2018-05-06T23:54:50.013Z,11.90
2018-05-06T23:57:18.448Z,11.90
2018-05-06T23:59:46.868Z,11.80
